createdAt,value
2023-01-26T00:00:47.948Z,2.26
2023-01-26T00:05:41.846Z,2.27
2023-01-26T00:10:37.780Z,2.28
2023-01-26T00:15:31.030Z,1.62
2023-01-26T00:20:25.578Z,2.29
2023-01-26T00:25:18.909Z,2.28
2023-01-26T00:30:13.772Z,1.34
2023-01-26T00:35:07.766Z,2.04
2023-01-26T00:40:04.227Z,2.31
2023-01-26T00:44:57.517Z,2.02
2023-01-26T00:49:50.730Z,2.34
2023-01-26T00:54:45.846Z,1.99
2023-01-26T00:59:42.509Z,1.90
2023-01-26T01:04:35.705Z,2.15
2023-01-26T01:09:29.113Z,2.26
2023-01-26T01:14:22.467Z,1.98
2023-01-26T01:19:18.502Z,1.66
2023-01-26T01:24:12.381Z,1.74
2023-01-26T01:29:05.744Z,2.18
2023-01-26T01:33:59.189Z,1.73
2023-01-26T01:38:54.102Z,2.22
2023-01-26T01:43:47.441Z,1.96
2023-01-26T01:48:49.093Z,1.91
2023-01-26T01:53:47.471Z,1.92
2023-01-26T01:58:44.578Z,1.67
2023-01-26T02:03:39.217Z,1.97
2023-01-26T02:08:38.240Z,1.28
2023-01-26T02:13:34.777Z,2.24
2023-01-26T02:18:31.543Z,2.03
2023-01-26T02:23:37.519Z,1.56
2023-01-26T02:28:33.012Z,1.93
2023-01-26T02:33:28.462Z,2.06
2023-01-26T02:38:31.218Z,1.70
2023-01-26T02:43:26.948Z,1.96
2023-01-26T02:48:36.062Z,2.22
2023-01-26T02:53:30.440Z,2.24
2023-01-26T02:58:23.825Z,2.22
2023-01-26T03:03:20.126Z,1.97
2023-01-26T03:08:14.832Z,2.23
2023-01-26T03:13:10.814Z,2.22
2023-01-26T03:18:23.190Z,1.98
2023-01-26T03:23:35.547Z,1.97
2023-01-26T03:28:29.101Z,2.24
2023-01-26T03:33:22.714Z,2.26
2023-01-26T03:38:17.642Z,1.89
2023-01-26T03:43:32.812Z,1.62
2023-01-26T03:48:43.847Z,1.84
2023-01-26T03:53:55.975Z,1.55
2023-01-26T03:58:51.773Z,2.25
2023-01-26T04:04:03.392Z,1.65
2023-01-26T04:08:58.122Z,2.16
2023-01-26T04:14:08.779Z,1.42
2023-01-26T04:19:19.976Z,2.27
2023-01-26T04:24:18.030Z,2.23
2023-01-26T04:29:14.192Z,1.86
2023-01-26T04:34:12.990Z,2.03
2023-01-26T04:39:09.605Z,2.20
2023-01-26T04:44:06.958Z,1.75
2023-01-26T04:49:00.320Z,1.44
2023-01-26T04:53:54.383Z,1.60
2023-01-26T04:58:49.044Z,2.01
2023-01-26T05:03:44.381Z,2.20
2023-01-26T05:08:40.450Z,1.69
2023-01-26T05:13:36.171Z,1.46
2023-01-26T05:18:57.229Z,2.17
2023-01-26T05:24:09.753Z,2.17
2023-01-26T05:29:23.313Z,1.94
2023-01-26T05:34:18.642Z,1.98
2023-01-26T05:39:12.465Z,1.36
2023-01-26T05:44:08.164Z,1.98
2023-01-26T05:49:19.969Z,2.14
2023-01-26T05:54:13.826Z,1.99
2023-01-26T05:59:07.344Z,1.08
2023-01-26T06:04:00.928Z,2.07
2023-01-26T06:09:02.727Z,2.24
2023-01-26T06:13:58.708Z,2.05
2023-01-26T06:18:53.677Z,2.07
2023-01-26T06:23:47.498Z,2.17
2023-01-26T06:28:42.923Z,2.00
2023-01-26T06:33:37.817Z,2.17
2023-01-26T06:38:32.901Z,2.01
2023-01-26T06:43:26.263Z,2.02
2023-01-26T06:48:20.796Z,2.04
2023-01-26T06:53:30.561Z,1.94
2023-01-26T06:58:42.207Z,2.05
2023-01-26T07:03:56.406Z,2.39
2023-01-26T07:08:50.881Z,2.17
2023-01-26T07:13:44.296Z,2.46
2023-01-26T07:18:38.019Z,2.50
2023-01-26T07:23:34.842Z,2.44
2023-01-26T07:28:30.706Z,2.46
2023-01-26T07:33:23.952Z,2.16
2023-01-26T07:38:17.046Z,2.36
2023-01-26T07:43:15.076Z,2.23
2023-01-26T07:48:15.878Z,2.65
2023-01-26T07:53:09.718Z,2.69
2023-01-26T07:58:02.949Z,2.74
2023-01-26T08:02:57.679Z,2.79
2023-01-26T08:07:50.890Z,2.86
2023-01-26T08:12:44.110Z,2.93
2023-01-26T08:17:38.624Z,2.99
2023-01-26T08:22:33.173Z,2.71
2023-01-26T08:27:26.240Z,2.81
2023-01-26T08:32:19.318Z,2.61
2023-01-26T08:37:12.594Z,3.08
2023-01-26T08:42:07.486Z,3.10
2023-01-26T08:47:00.697Z,2.85
2023-01-26T08:51:56.304Z,3.18
2023-01-26T08:56:49.579Z,3.09
2023-01-26T09:01:44.156Z,3.19
2023-01-26T09:06:37.363Z,3.15
2023-01-26T09:11:30.617Z,3.34
2023-01-26T09:16:25.223Z,3.14
2023-01-26T09:21:20.635Z,3.41
2023-01-26T09:26:13.886Z,3.01
2023-01-26T09:31:08.536Z,3.42
2023-01-26T09:36:05.455Z,3.57
2023-01-26T09:41:06.745Z,3.55
2023-01-26T09:46:07.731Z,3.53
2023-01-26T09:51:06.099Z,3.41
2023-01-26T09:56:01.421Z,3.56
2023-01-26T10:01:01.450Z,3.45
2023-01-26T10:06:02.572Z,3.29
2023-01-26T10:11:20.841Z,3.32
2023-01-26T10:16:16.433Z,3.35
2023-01-26T10:21:12.114Z,3.73
2023-01-26T10:26:14.811Z,3.81
2023-01-26T10:31:15.447Z,3.85
2023-01-26T10:36:13.631Z,3.67
2023-01-26T10:41:11.382Z,3.91
2023-01-26T10:46:05.684Z,3.95
2023-01-26T10:51:17.484Z,3.70
2023-01-26T10:56:16.338Z,3.76
2023-01-26T11:01:12.621Z,3.94
2023-01-26T11:06:14.653Z,3.85
2023-01-26T11:11:10.563Z,3.92
2023-01-26T11:16:11.649Z,3.66
2023-01-26T11:21:12.941Z,4.17
2023-01-26T11:26:41.192Z,3.92
2023-01-26T11:31:45.157Z,4.24
2023-01-26T11:36:50.851Z,3.90
2023-01-26T11:41:57.414Z,4.03
2023-01-26T11:47:02.900Z,4.03
2023-01-26T11:52:11.042Z,4.37
2023-01-26T11:57:16.430Z,4.36
2023-01-26T12:02:28.869Z,4.27
2023-01-26T12:07:28.425Z,4.34
2023-01-26T12:12:28.320Z,4.31
2023-01-26T12:17:37.833Z,3.99
2023-01-26T12:22:36.064Z,4.34
2023-01-26T12:27:36.317Z,4.32
2023-01-26T12:32:32.513Z,4.29
2023-01-26T12:37:48.459Z,4.12
2023-01-26T12:42:50.865Z,3.96
2023-01-26T12:47:49.755Z,4.11
2023-01-26T12:52:49.289Z,4.23
2023-01-26T12:57:49.234Z,4.05
2023-01-26T13:02:53.522Z,4.33
2023-01-26T13:08:01.629Z,4.35
2023-01-26T13:18:54.762Z,4.37
2023-01-26T13:23:58.208Z,3.58
2023-01-26T13:29:36.429Z,3.11
2023-01-26T13:35:03.996Z,4.44
2023-01-26T13:40:59.333Z,3.77
2023-01-26T13:46:35.100Z,4.21
2023-01-26T13:58:00.422Z,3.86
2023-01-26T14:03:05.587Z,4.42
2023-01-26T14:08:16.378Z,4.29
2023-01-26T14:13:37.447Z,3.22
2023-01-26T14:18:54.940Z,3.98
2023-01-26T14:30:15.710Z,3.72
2023-01-26T14:35:28.987Z,4.16
2023-01-26T14:53:44.051Z,3.93
2023-01-26T14:59:21.491Z,4.25
2023-01-26T15:05:12.704Z,4.66
2023-01-26T15:11:39.777Z,5.04
2023-01-26T15:17:02.267Z,4.75
2023-01-26T15:22:58.751Z,5.08
2023-01-26T15:28:50.579Z,4.85
2023-01-26T15:34:53.074Z,3.57
2023-01-26T15:40:49.863Z,5.00
2023-01-26T15:52:35.682Z,4.31
2023-01-26T16:04:04.054Z,5.03
2023-01-26T16:09:42.154Z,5.28
2023-01-26T16:21:58.209Z,3.75
2023-01-26T16:28:53.399Z,5.24
2023-01-26T16:33:38.566Z,4.43
2023-01-26T16:39:57.567Z,4.50
2023-01-26T16:50:55.480Z,5.24
2023-01-26T16:56:34.373Z,3.57
2023-01-26T17:08:15.266Z,4.59
2023-01-26T17:13:54.817Z,5.29
2023-01-26T17:32:20.204Z,5.45
2023-01-26T17:37:55.876Z,5.47
2023-01-26T17:43:47.763Z,5.37
2023-01-26T17:49:15.673Z,5.63
2023-01-26T17:55:10.901Z,5.70
2023-01-26T18:07:20.290Z,4.70
2023-01-26T18:19:54.301Z,5.41
2023-01-26T18:44:29.608Z,4.89
2023-01-26T18:50:07.568Z,5.52
2023-01-26T18:55:35.973Z,5.43
2023-01-26T19:07:20.262Z,5.88
2023-01-26T19:24:51.723Z,6.29
2023-01-26T19:30:34.457Z,5.47
2023-01-26T19:36:32.315Z,6.29
2023-01-26T19:42:21.723Z,6.21
2023-01-26T19:47:58.727Z,5.91
2023-01-26T19:53:32.199Z,4.65
2023-01-26T19:59:03.982Z,5.32
2023-01-26T20:04:14.854Z,5.62
2023-01-26T20:10:22.142Z,5.54
2023-01-26T20:29:02.666Z,5.25
2023-01-26T20:34:45.911Z,4.86
2023-01-26T20:41:06.771Z,5.57
2023-01-26T21:05:15.514Z,4.34
2023-01-26T21:11:07.328Z,5.42
2023-01-26T21:33:58.675Z,5.00
2023-01-26T21:51:02.422Z,4.04
2023-01-26T21:56:43.215Z,4.12
2023-01-26T22:07:39.157Z,4.52
2023-01-26T22:12:51.766Z,5.25
2023-01-26T22:18:14.441Z,4.93
2023-01-26T22:29:53.486Z,3.79
2023-01-26T22:35:54.464Z,5.32
2023-01-26T22:41:23.001Z,5.00
2023-01-26T22:46:42.592Z,4.83
2023-01-26T22:51:54.395Z,5.01
2023-01-26T22:57:06.107Z,4.28
2023-01-26T23:08:51.901Z,5.36
2023-01-26T23:14:15.260Z,5.02
2023-01-26T23:19:33.868Z,3.80
2023-01-26T23:24:35.767Z,4.95
2023-01-26T23:30:41.580Z,3.78
2023-01-26T23:35:48.315Z,4.45
2023-01-26T23:41:06.373Z,4.48
2023-01-26T23:46:26.623Z,4.40
2023-01-26T23:51:41.120Z,5.17
2023-01-26T23:57:10.855Z,5.18
